sensor_id;sensor_type;location;lat;lon;timestamp;temperature;humidity
14053;DHT22;7101;51.600;7.310;2024-02-26T00:01:51;5.30;1.00
14053;DHT22;7101;51.600;7.310;2024-02-26T00:04:18;5.40;1.00
14053;DHT22;7101;51.600;7.310;2024-02-26T00:06:47;5.30;1.00
14053;DHT22;7101;51.600;7.310;2024-02-26T00:09:16;5.30;99.90
14053;DHT22;7101;51.600;7.310;2024-02-26T00:11:42;5.30;99.90
14053;DHT22;7101;51.600;7.310;2024-02-26T00:14:11;5.40;99.90
14053;DHT22;7101;51.600;7.310;2024-02-26T00:16:40;5.30;55.20
14053;DHT22;7101;51.600;7.310;2024-02-26T00:19:06;5.40;1.00
14053;DHT22;7101;51.600;7.310;2024-02-26T00:21:33;5.40;1.00
14053;DHT22;7101;51.600;7.310;2024-02-26T00:24:00;5.40;1.00
14053;DHT22;7101;51.600;7.310;2024-02-26T00:26:27;5.30;1.00
14053;DHT22;7101;51.600;7.310;2024-02-26T00:28:53;5.30;1.00
14053;DHT22;7101;51.600;7.310;2024-02-26T00:31:22;5.40;1.00
14053;DHT22;7101;51.600;7.310;2024-02-26T00:33:48;5.40;1.00
14053;DHT22;7101;51.600;7.310;2024-02-26T00:36:15;5.40;1.00
14053;DHT22;7101;51.600;7.310;2024-02-26T00:38:43;5.50;1.00
14053;DHT22;7101;51.600;7.310;2024-02-26T00:41:16;5.50;1.00
14053;DHT22;7101;51.600;7.310;2024-02-26T00:43:42;5.50;1.00
14053;DHT22;7101;51.600;7.310;2024-02-26T00:46:09;5.50;1.00
14053;DHT22;7101;51.600;7.310;2024-02-26T00:48:37;5.50;1.00
14053;DHT22;7101;51.600;7.310;2024-02-26T00:51:04;5.40;1.00
14053;DHT22;7101;51.600;7.310;2024-02-26T00:53:32;5.50;1.00
14053;DHT22;7101;51.600;7.310;2024-02-26T00:55:58;5.50;1.00
14053;DHT22;7101;51.600;7.310;2024-02-26T00:58:25;5.50;1.00
14053;DHT22;7101;51.600;7.310;2024-02-26T01:00:52;5.60;1.00
14053;DHT22;7101;51.600;7.310;2024-02-26T01:03:19;5.60;1.00
14053;DHT22;7101;51.600;7.310;2024-02-26T01:05:48;5.60;1.00
14053;DHT22;7101;51.600;7.310;2024-02-26T01:08:14;5.60;1.00
14053;DHT22;7101;51.600;7.310;2024-02-26T01:10:41;5.60;1.00
14053;DHT22;7101;51.600;7.310;2024-02-26T01:13:08;5.70;1.00
14053;DHT22;7101;51.600;7.310;2024-02-26T01:15:35;5.70;1.00
14053;DHT22;7101;51.600;7.310;2024-02-26T01:18:01;5.70;1.00
14053;DHT22;7101;51.600;7.310;2024-02-26T01:20:28;5.80;1.00
14053;DHT22;7101;51.600;7.310;2024-02-26T01:22:56;5.60;1.00
14053;DHT22;7101;51.600;7.310;2024-02-26T01:25:23;5.60;1.00
14053;DHT22;7101;51.600;7.310;2024-02-26T01:27:50;5.70;1.00
14053;DHT22;7101;51.600;7.310;2024-02-26T01:30:17;5.70;1.00
14053;DHT22;7101;51.600;7.310;2024-02-26T01:32:45;5.60;1.00
14053;DHT22;7101;51.600;7.310;2024-02-26T01:35:12;5.60;1.00
14053;DHT22;7101;51.600;7.310;2024-02-26T01:37:39;5.70;1.00
14053;DHT22;7101;51.600;7.310;2024-02-26T01:40:09;5.70;1.00
14053;DHT22;7101;51.600;7.310;2024-02-26T01:42:38;5.70;1.00
14053;DHT22;7101;51.600;7.310;2024-02-26T01:45:11;5.70;1.00
14053;DHT22;7101;51.600;7.310;2024-02-26T01:47:40;5.70;1.00
14053;DHT22;7101;51.600;7.310;2024-02-26T01:50:08;5.70;1.00
14053;DHT22;7101;51.600;7.310;2024-02-26T01:52:35;5.80;1.00
14053;DHT22;7101;51.600;7.310;2024-02-26T01:55:02;5.80;1.00
14053;DHT22;7101;51.600;7.310;2024-02-26T01:57:30;5.80;1.00
14053;DHT22;7101;51.600;7.310;2024-02-26T01:59:57;5.70;1.00
14053;DHT22;7101;51.600;7.310;2024-02-26T02:02:24;5.70;1.00
14053;DHT22;7101;51.600;7.310;2024-02-26T02:04:51;5.80;1.00
14053;DHT22;7101;51.600;7.310;2024-02-26T02:07:19;5.80;1.00
14053;DHT22;7101;51.600;7.310;2024-02-26T02:09:47;5.70;1.00
14053;DHT22;7101;51.600;7.310;2024-02-26T02:12:14;5.80;99.90
14053;DHT22;7101;51.600;7.310;2024-02-26T02:14:42;5.80;99.90
14053;DHT22;7101;51.600;7.310;2024-02-26T02:17:09;5.90;99.90
14053;DHT22;7101;51.600;7.310;2024-02-26T02:19:37;5.80;99.90
14053;DHT22;7101;51.600;7.310;2024-02-26T02:22:06;5.80;99.90
14053;DHT22;7101;51.600;7.310;2024-02-26T02:24:32;5.80;1.00
14053;DHT22;7101;51.600;7.310;2024-02-26T02:26:59;5.80;1.00
14053;DHT22;7101;51.600;7.310;2024-02-26T02:29:26;5.80;1.00
14053;DHT22;7101;51.600;7.310;2024-02-26T02:31:54;5.80;1.00
14053;DHT22;7101;51.600;7.310;2024-02-26T02:34:21;5.80;1.00
14053;DHT22;7101;51.600;7.310;2024-02-26T02:36:50;5.70;1.00
14053;DHT22;7101;51.600;7.310;2024-02-26T02:39:19;5.70;1.00
14053;DHT22;7101;51.600;7.310;2024-02-26T02:41:46;5.70;1.00
14053;DHT22;7101;51.600;7.310;2024-02-26T02:44:13;5.80;99.90
14053;DHT22;7101;51.600;7.310;2024-02-26T02:46:40;5.80;99.90
14053;DHT22;7101;51.600;7.310;2024-02-26T02:49:08;5.80;99.90
14053;DHT22;7101;51.600;7.310;2024-02-26T02:51:36;5.80;99.90
14053;DHT22;7101;51.600;7.310;2024-02-26T02:54:03;5.80;99.90
14053;DHT22;7101;51.600;7.310;2024-02-26T02:56:31;5.80;99.90
14053;DHT22;7101;51.600;7.310;2024-02-26T02:58:59;5.90;99.90
14053;DHT22;7101;51.600;7.310;2024-02-26T03:01:26;5.80;99.90
14053;DHT22;7101;51.600;7.310;2024-02-26T03:03:52;5.80;99.90
14053;DHT22;7101;51.600;7.310;2024-02-26T03:06:19;5.90;99.90
14053;DHT22;7101;51.600;7.310;2024-02-26T03:08:47;5.90;99.90
14053;DHT22;7101;51.600;7.310;2024-02-26T03:11:14;5.90;99.90
14053;DHT22;7101;51.600;7.310;2024-02-26T03:13:42;5.90;99.90
14053;DHT22;7101;51.600;7.310;2024-02-26T03:16:09;5.80;99.90
14053;DHT22;7101;51.600;7.310;2024-02-26T03:18:38;5.80;99.90
14053;DHT22;7101;51.600;7.310;2024-02-26T03:21:05;5.80;99.90
14053;DHT22;7101;51.600;7.310;2024-02-26T03:23:32;5.70;1.00
14053;DHT22;7101;51.600;7.310;2024-02-26T03:26:02;5.80;1.00
14053;DHT22;7101;51.600;7.310;2024-02-26T03:28:30;5.80;1.00
14053;DHT22;7101;51.600;7.310;2024-02-26T03:31:00;5.80;1.00
14053;DHT22;7101;51.600;7.310;2024-02-26T03:33:27;5.90;1.00
14053;DHT22;7101;51.600;7.310;2024-02-26T03:35:54;5.80;1.00
14053;DHT22;7101;51.600;7.310;2024-02-26T03:38:21;5.80;1.00
14053;DHT22;7101;51.600;7.310;2024-02-26T03:40:48;5.80;1.00
14053;DHT22;7101;51.600;7.310;2024-02-26T03:43:16;5.80;1.00
14053;DHT22;7101;51.600;7.310;2024-02-26T03:45:43;5.80;1.00
14053;DHT22;7101;51.600;7.310;2024-02-26T03:48:13;5.70;1.00
14053;DHT22;7101;51.600;7.310;2024-02-26T03:50:42;5.70;1.00
14053;DHT22;7101;51.600;7.310;2024-02-26T03:53:09;5.60;1.00
14053;DHT22;7101;51.600;7.310;2024-02-26T03:55:38;5.60;63.70
14053;DHT22;7101;51.600;7.310;2024-02-26T03:58:07;5.60;99.90
14053;DHT22;7101;51.600;7.310;2024-02-26T04:00:34;5.50;99.90
14053;DHT22;7101;51.600;7.310;2024-02-26T04:03:00;5.50;99.90
14053;DHT22;7101;51.600;7.310;2024-02-26T04:05:28;5.50;99.90
14053;DHT22;7101;51.600;7.310;2024-02-26T04:07:55;5.40;99.90
14053;DHT22;7101;51.600;7.310;2024-02-26T04:10:22;5.40;99.90
14053;DHT22;7101;51.600;7.310;2024-02-26T04:12:49;5.40;99.90
14053;DHT22;7101;51.600;7.310;2024-02-26T04:15:16;5.30;99.90
14053;DHT22;7101;51.600;7.310;2024-02-26T04:17:43;5.20;1.00
14053;DHT22;7101;51.600;7.310;2024-02-26T04:20:14;5.20;1.00
14053;DHT22;7101;51.600;7.310;2024-02-26T04:22:44;5.10;4.80
14053;DHT22;7101;51.600;7.310;2024-02-26T04:25:11;5.10;99.90
14053;DHT22;7101;51.600;7.310;2024-02-26T04:27:38;5.00;99.90
14053;DHT22;7101;51.600;7.310;2024-02-26T04:30:06;4.90;99.90
14053;DHT22;7101;51.600;7.310;2024-02-26T04:32:33;4.90;99.90
14053;DHT22;7101;51.600;7.310;2024-02-26T04:35:00;4.80;99.90
14053;DHT22;7101;51.600;7.310;2024-02-26T04:37:27;4.80;1.00
14053;DHT22;7101;51.600;7.310;2024-02-26T04:39:58;4.70;1.00
14053;DHT22;7101;51.600;7.310;2024-02-26T04:42:25;4.70;1.00
14053;DHT22;7101;51.600;7.310;2024-02-26T04:44:51;4.70;1.00
14053;DHT22;7101;51.600;7.310;2024-02-26T04:47:18;4.60;1.00
14053;DHT22;7101;51.600;7.310;2024-02-26T04:49:45;4.60;1.00
14053;DHT22;7101;51.600;7.310;2024-02-26T04:52:12;4.60;1.00
14053;DHT22;7101;51.600;7.310;2024-02-26T04:54:38;4.50;99.90
14053;DHT22;7101;51.600;7.310;2024-02-26T04:57:06;4.50;1.00
14053;DHT22;7101;51.600;7.310;2024-02-26T04:59:33;4.50;1.00
14053;DHT22;7101;51.600;7.310;2024-02-26T05:02:00;4.50;1.00
14053;DHT22;7101;51.600;7.310;2024-02-26T05:04:27;4.50;1.00
14053;DHT22;7101;51.600;7.310;2024-02-26T05:06:54;4.50;1.00
14053;DHT22;7101;51.600;7.310;2024-02-26T05:09:20;4.50;1.00
14053;DHT22;7101;51.600;7.310;2024-02-26T05:11:47;4.50;1.00
14053;DHT22;7101;51.600;7.310;2024-02-26T05:14:15;4.50;99.90
14053;DHT22;7101;51.600;7.310;2024-02-26T05:16:42;4.50;1.00
14053;DHT22;7101;51.600;7.310;2024-02-26T05:19:09;4.50;1.00
14053;DHT22;7101;51.600;7.310;2024-02-26T05:21:36;4.50;1.00
14053;DHT22;7101;51.600;7.310;2024-02-26T05:24:03;4.50;1.00
14053;DHT22;7101;51.600;7.310;2024-02-26T05:26:30;4.50;1.00
14053;DHT22;7101;51.600;7.310;2024-02-26T05:28:56;4.50;1.00
14053;DHT22;7101;51.600;7.310;2024-02-26T05:31:26;4.50;1.00
14053;DHT22;7101;51.600;7.310;2024-02-26T05:33:54;4.60;1.00
14053;DHT22;7101;51.600;7.310;2024-02-26T05:36:21;4.60;1.00
14053;DHT22;7101;51.600;7.310;2024-02-26T05:38:48;4.60;1.00
14053;DHT22;7101;51.600;7.310;2024-02-26T05:41:16;4.60;1.00
14053;DHT22;7101;51.600;7.310;2024-02-26T05:43:48;4.60;1.00
14053;DHT22;7101;51.600;7.310;2024-02-26T05:46:16;4.60;1.00
14053;DHT22;7101;51.600;7.310;2024-02-26T05:48:47;4.60;1.00
14053;DHT22;7101;51.600;7.310;2024-02-26T05:51:14;4.60;27.20
14053;DHT22;7101;51.600;7.310;2024-02-26T05:53:41;4.60;27.80
14053;DHT22;7101;51.600;7.310;2024-02-26T05:56:08;4.60;80.50
14053;DHT22;7101;51.600;7.310;2024-02-26T05:58:36;4.60;99.70
14053;DHT22;7101;51.600;7.310;2024-02-26T06:01:03;4.60;99.90
14053;DHT22;7101;51.600;7.310;2024-02-26T06:03:30;4.70;99.90
14053;DHT22;7101;51.600;7.310;2024-02-26T06:05:58;4.70;99.90
14053;DHT22;7101;51.600;7.310;2024-02-26T06:08:25;4.70;99.90
14053;DHT22;7101;51.600;7.310;2024-02-26T06:10:52;4.70;99.90
14053;DHT22;7101;51.600;7.310;2024-02-26T06:13:18;4.80;99.90
14053;DHT22;7101;51.600;7.310;2024-02-26T06:15:46;4.80;99.90
14053;DHT22;7101;51.600;7.310;2024-02-26T06:18:13;4.70;99.90
14053;DHT22;7101;51.600;7.310;2024-02-26T06:20:41;4.80;99.90
14053;DHT22;7101;51.600;7.310;2024-02-26T06:23:09;4.70;99.90
14053;DHT22;7101;51.600;7.310;2024-02-26T06:25:36;4.70;99.90
14053;DHT22;7101;51.600;7.310;2024-02-26T06:28:03;4.70;99.90
14053;DHT22;7101;51.600;7.310;2024-02-26T06:30:30;4.80;99.90
14053;DHT22;7101;51.600;7.310;2024-02-26T06:32:57;4.70;99.90
14053;DHT22;7101;51.600;7.310;2024-02-26T06:35:24;4.70;99.90
14053;DHT22;7101;51.600;7.310;2024-02-26T06:37:51;4.70;99.90
14053;DHT22;7101;51.600;7.310;2024-02-26T06:40:19;4.70;99.90
14053;DHT22;7101;51.600;7.310;2024-02-26T06:42:46;4.70;99.90
14053;DHT22;7101;51.600;7.310;2024-02-26T06:45:13;4.70;99.90
14053;DHT22;7101;51.600;7.310;2024-02-26T06:47:40;4.80;99.90
14053;DHT22;7101;51.600;7.310;2024-02-26T06:50:09;4.70;99.90
14053;DHT22;7101;51.600;7.310;2024-02-26T06:52:35;4.70;99.90
14053;DHT22;7101;51.600;7.310;2024-02-26T06:55:03;4.70;99.90
14053;DHT22;7101;51.600;7.310;2024-02-26T06:57:32;4.80;99.90
14053;DHT22;7101;51.600;7.310;2024-02-26T06:59:58;4.80;99.90
14053;DHT22;7101;51.600;7.310;2024-02-26T07:02:25;4.80;99.90
14053;DHT22;7101;51.600;7.310;2024-02-26T07:04:52;4.70;99.90
14053;DHT22;7101;51.600;7.310;2024-02-26T07:07:19;4.70;99.90
14053;DHT22;7101;51.600;7.310;2024-02-26T07:09:48;4.70;99.90
14053;DHT22;7101;51.600;7.310;2024-02-26T07:12:14;4.80;99.90
14053;DHT22;7101;51.600;7.310;2024-02-26T07:14:43;4.70;99.90
14053;DHT22;7101;51.600;7.310;2024-02-26T07:17:11;4.70;99.90
14053;DHT22;7101;51.600;7.310;2024-02-26T07:19:38;4.70;99.90
14053;DHT22;7101;51.600;7.310;2024-02-26T07:22:05;4.70;99.90
14053;DHT22;7101;51.600;7.310;2024-02-26T07:24:32;4.70;99.90
14053;DHT22;7101;51.600;7.310;2024-02-26T07:26:59;4.80;99.90
14053;DHT22;7101;51.600;7.310;2024-02-26T07:29:25;4.80;99.90
14053;DHT22;7101;51.600;7.310;2024-02-26T07:31:54;4.80;95.60
14053;DHT22;7101;51.600;7.310;2024-02-26T07:34:20;4.80;47.50
14053;DHT22;7101;51.600;7.310;2024-02-26T07:36:53;4.80;20.20
14053;DHT22;7101;51.600;7.310;2024-02-26T07:39:20;4.80;1.00
14053;DHT22;7101;51.600;7.310;2024-02-26T07:41:47;4.80;1.00
14053;DHT22;7101;51.600;7.310;2024-02-26T07:44:17;4.90;1.00
14053;DHT22;7101;51.600;7.310;2024-02-26T07:46:43;5.00;1.00
14053;DHT22;7101;51.600;7.310;2024-02-26T07:49:12;5.00;1.00
14053;DHT22;7101;51.600;7.310;2024-02-26T07:51:38;5.00;1.00
14053;DHT22;7101;51.600;7.310;2024-02-26T07:54:06;5.10;99.90
14053;DHT22;7101;51.600;7.310;2024-02-26T07:56:33;5.00;99.90
14053;DHT22;7101;51.600;7.310;2024-02-26T07:58:59;5.00;99.90
14053;DHT22;7101;51.600;7.310;2024-02-26T08:01:26;5.10;99.90
14053;DHT22;7101;51.600;7.310;2024-02-26T08:03:53;5.10;99.90
14053;DHT22;7101;51.600;7.310;2024-02-26T08:06:23;5.10;99.90
14053;DHT22;7101;51.600;7.310;2024-02-26T08:08:50;5.20;99.90
14053;DHT22;7101;51.600;7.310;2024-02-26T08:11:17;5.20;99.90
14053;DHT22;7101;51.600;7.310;2024-02-26T08:13:43;5.20;99.90
14053;DHT22;7101;51.600;7.310;2024-02-26T08:16:10;5.20;99.90
14053;DHT22;7101;51.600;7.310;2024-02-26T08:18:37;5.20;99.90
14053;DHT22;7101;51.600;7.310;2024-02-26T08:21:04;5.30;99.90
14053;DHT22;7101;51.600;7.310;2024-02-26T08:23:32;5.20;99.90
14053;DHT22;7101;51.600;7.310;2024-02-26T08:25:59;5.30;1.00
14053;DHT22;7101;51.600;7.310;2024-02-26T08:28:26;5.30;99.90
14053;DHT22;7101;51.600;7.310;2024-02-26T08:30:53;5.30;1.00
14053;DHT22;7101;51.600;7.310;2024-02-26T08:33:19;5.30;99.90
14053;DHT22;7101;51.600;7.310;2024-02-26T08:35:46;5.30;99.90
14053;DHT22;7101;51.600;7.310;2024-02-26T08:38:13;5.30;1.00
14053;DHT22;7101;51.600;7.310;2024-02-26T08:40:42;5.40;1.00
14053;DHT22;7101;51.600;7.310;2024-02-26T08:43:08;5.40;99.90
14053;DHT22;7101;51.600;7.310;2024-02-26T08:45:35;5.40;1.00
14053;DHT22;7101;51.600;7.310;2024-02-26T08:48:03;5.50;1.00
14053;DHT22;7101;51.600;7.310;2024-02-26T08:50:29;5.40;99.90
14053;DHT22;7101;51.600;7.310;2024-02-26T08:52:56;5.40;1.00
14053;DHT22;7101;51.600;7.310;2024-02-26T08:55:23;5.40;99.90
14053;DHT22;7101;51.600;7.310;2024-02-26T08:57:51;5.50;99.90
14053;DHT22;7101;51.600;7.310;2024-02-26T09:00:18;5.50;1.00
14053;DHT22;7101;51.600;7.310;2024-02-26T09:02:46;5.50;1.00
14053;DHT22;7101;51.600;7.310;2024-02-26T09:05:13;5.60;99.90
14053;DHT22;7101;51.600;7.310;2024-02-26T09:07:40;5.60;99.90
14053;DHT22;7101;51.600;7.310;2024-02-26T09:10:07;5.60;99.90
14053;DHT22;7101;51.600;7.310;2024-02-26T09:12:36;5.60;99.90
14053;DHT22;7101;51.600;7.310;2024-02-26T09:15:05;5.70;99.90
14053;DHT22;7101;51.600;7.310;2024-02-26T09:17:32;5.70;99.90
14053;DHT22;7101;51.600;7.310;2024-02-26T09:19:59;5.70;99.90
14053;DHT22;7101;51.600;7.310;2024-02-26T09:22:26;5.70;99.90
14053;DHT22;7101;51.600;7.310;2024-02-26T09:24:53;5.70;91.70
14053;DHT22;7101;51.600;7.310;2024-02-26T09:27:19;5.70;99.90
14053;DHT22;7101;51.600;7.310;2024-02-26T09:29:46;5.70;99.90
14053;DHT22;7101;51.600;7.310;2024-02-26T09:32:15;5.80;99.90
14053;DHT22;7101;51.600;7.310;2024-02-26T09:34:41;5.80;99.90
14053;DHT22;7101;51.600;7.310;2024-02-26T09:37:08;5.70;99.90
14053;DHT22;7101;51.600;7.310;2024-02-26T09:39:35;5.70;1.00
14053;DHT22;7101;51.600;7.310;2024-02-26T09:42:04;5.70;99.90
14053;DHT22;7101;51.600;7.310;2024-02-26T09:44:33;5.80;1.00
14053;DHT22;7101;51.600;7.310;2024-02-26T09:47:05;5.80;1.00
14053;DHT22;7101;51.600;7.310;2024-02-26T09:49:34;5.90;1.00
14053;DHT22;7101;51.600;7.310;2024-02-26T09:52:01;5.90;99.90
14053;DHT22;7101;51.600;7.310;2024-02-26T09:54:30;5.90;99.90
14053;DHT22;7101;51.600;7.310;2024-02-26T09:56:59;6.00;99.90
14053;DHT22;7101;51.600;7.310;2024-02-26T09:59:27;6.10;99.90
14053;DHT22;7101;51.600;7.310;2024-02-26T10:01:54;6.20;99.90
14053;DHT22;7101;51.600;7.310;2024-02-26T10:04:22;6.30;99.90
14053;DHT22;7101;51.600;7.310;2024-02-26T10:06:52;6.30;1.00
14053;DHT22;7101;51.600;7.310;2024-02-26T10:09:20;6.20;1.00
14053;DHT22;7101;51.600;7.310;2024-02-26T10:11:47;6.20;1.00
14053;DHT22;7101;51.600;7.310;2024-02-26T10:14:16;6.30;1.00
14053;DHT22;7101;51.600;7.310;2024-02-26T10:16:43;6.30;1.00
14053;DHT22;7101;51.600;7.310;2024-02-26T10:19:25;6.30;1.00
14053;DHT22;7101;51.600;7.310;2024-02-26T10:21:56;6.40;1.00
14053;DHT22;7101;51.600;7.310;2024-02-26T10:24:24;6.40;1.00
14053;DHT22;7101;51.600;7.310;2024-02-26T10:26:51;6.40;99.90
14053;DHT22;7101;51.600;7.310;2024-02-26T10:29:18;6.40;99.90
14053;DHT22;7101;51.600;7.310;2024-02-26T10:31:45;6.50;1.00
14053;DHT22;7101;51.600;7.310;2024-02-26T10:34:12;6.60;99.90
14053;DHT22;7101;51.600;7.310;2024-02-26T10:36:39;6.60;99.90
14053;DHT22;7101;51.600;7.310;2024-02-26T10:39:08;6.60;99.90
14053;DHT22;7101;51.600;7.310;2024-02-26T10:41:34;6.70;18.50
14053;DHT22;7101;51.600;7.310;2024-02-26T10:44:01;6.70;51.40
14053;DHT22;7101;51.600;7.310;2024-02-26T10:46:29;6.70;1.00
14053;DHT22;7101;51.600;7.310;2024-02-26T10:48:56;6.70;1.00
14053;DHT22;7101;51.600;7.310;2024-02-26T10:51:27;6.80;47.50
14053;DHT22;7101;51.600;7.310;2024-02-26T10:53:55;6.70;1.00
14053;DHT22;7101;51.600;7.310;2024-02-26T10:56:26;6.70;39.90
14053;DHT22;7101;51.600;7.310;2024-02-26T10:58:55;6.80;99.90
14053;DHT22;7101;51.600;7.310;2024-02-26T11:01:22;6.80;99.90
14053;DHT22;7101;51.600;7.310;2024-02-26T11:03:52;6.70;98.70
14053;DHT22;7101;51.600;7.310;2024-02-26T11:06:19;6.70;99.90
14053;DHT22;7101;51.600;7.310;2024-02-26T11:08:48;6.70;99.90
14053;DHT22;7101;51.600;7.310;2024-02-26T11:11:16;6.60;99.90
14053;DHT22;7101;51.600;7.310;2024-02-26T11:13:46;6.60;99.90
14053;DHT22;7101;51.600;7.310;2024-02-26T11:16:17;6.50;99.90
14053;DHT22;7101;51.600;7.310;2024-02-26T11:18:46;6.40;99.90
14053;DHT22;7101;51.600;7.310;2024-02-26T11:21:15;6.50;99.90
14053;DHT22;7101;51.600;7.310;2024-02-26T11:23:44;6.40;99.90
14053;DHT22;7101;51.600;7.310;2024-02-26T11:26:12;6.40;99.90
14053;DHT22;7101;51.600;7.310;2024-02-26T11:28:41;6.40;99.90
14053;DHT22;7101;51.600;7.310;2024-02-26T11:31:10;6.40;1.00
14053;DHT22;7101;51.600;7.310;2024-02-26T11:33:38;6.40;99.90
14053;DHT22;7101;51.600;7.310;2024-02-26T11:36:08;6.50;99.90
14053;DHT22;7101;51.600;7.310;2024-02-26T11:38:36;6.50;99.90
14053;DHT22;7101;51.600;7.310;2024-02-26T11:41:04;6.50;99.90
14053;DHT22;7101;51.600;7.310;2024-02-26T11:43:49;6.50;99.90
14053;DHT22;7101;51.600;7.310;2024-02-26T11:46:27;6.50;1.00
14053;DHT22;7101;51.600;7.310;2024-02-26T11:48:56;6.60;99.90
14053;DHT22;7101;51.600;7.310;2024-02-26T11:51:25;6.60;1.00
14053;DHT22;7101;51.600;7.310;2024-02-26T11:53:53;6.60;1.00
14053;DHT22;7101;51.600;7.310;2024-02-26T11:56:23;6.60;99.90
14053;DHT22;7101;51.600;7.310;2024-02-26T11:59:00;6.60;99.90
14053;DHT22;7101;51.600;7.310;2024-02-26T12:01:45;6.60;26.20
14053;DHT22;7101;51.600;7.310;2024-02-26T12:04:17;6.70;99.90
14053;DHT22;7101;51.600;7.310;2024-02-26T12:06:47;6.80;99.90
14053;DHT22;7101;51.600;7.310;2024-02-26T12:09:32;6.80;79.60
14053;DHT22;7101;51.600;7.310;2024-02-26T12:12:01;6.80;75.60
14053;DHT22;7101;51.600;7.310;2024-02-26T12:14:28;6.90;99.90
14053;DHT22;7101;51.600;7.310;2024-02-26T12:16:56;6.90;99.90
14053;DHT22;7101;51.600;7.310;2024-02-26T12:19:24;6.90;99.90
14053;DHT22;7101;51.600;7.310;2024-02-26T12:21:52;6.90;17.90
14053;DHT22;7101;51.600;7.310;2024-02-26T12:24:20;6.90;99.90
14053;DHT22;7101;51.600;7.310;2024-02-26T12:26:47;6.90;99.90
14053;DHT22;7101;51.600;7.310;2024-02-26T12:29:14;6.90;44.00
14053;DHT22;7101;51.600;7.310;2024-02-26T12:31:41;6.80;99.90
14053;DHT22;7101;51.600;7.310;2024-02-26T12:34:10;6.70;99.90
14053;DHT22;7101;51.600;7.310;2024-02-26T12:36:37;6.60;99.90
14053;DHT22;7101;51.600;7.310;2024-02-26T12:39:06;6.60;99.90
14053;DHT22;7101;51.600;7.310;2024-02-26T12:41:38;6.60;99.90
14053;DHT22;7101;51.600;7.310;2024-02-26T12:44:04;6.60;99.90
14053;DHT22;7101;51.600;7.310;2024-02-26T12:46:32;6.50;1.00
14053;DHT22;7101;51.600;7.310;2024-02-26T12:48:59;6.50;1.00
14053;DHT22;7101;51.600;7.310;2024-02-26T12:51:27;6.40;1.00
14053;DHT22;7101;51.600;7.310;2024-02-26T12:53:55;6.40;1.00
14053;DHT22;7101;51.600;7.310;2024-02-26T12:56:23;6.40;1.00
14053;DHT22;7101;51.600;7.310;2024-02-26T12:58:50;6.50;1.00
14053;DHT22;7101;51.600;7.310;2024-02-26T13:01:20;6.50;1.00
14053;DHT22;7101;51.600;7.310;2024-02-26T13:03:48;6.50;1.00
14053;DHT22;7101;51.600;7.310;2024-02-26T13:06:17;6.60;1.00
14053;DHT22;7101;51.600;7.310;2024-02-26T13:08:46;6.60;1.00
14053;DHT22;7101;51.600;7.310;2024-02-26T13:11:13;6.50;1.00
14053;DHT22;7101;51.600;7.310;2024-02-26T13:13:40;6.50;1.00
14053;DHT22;7101;51.600;7.310;2024-02-26T13:16:10;6.50;1.00
14053;DHT22;7101;51.600;7.310;2024-02-26T13:18:40;6.50;1.00
14053;DHT22;7101;51.600;7.310;2024-02-26T13:21:12;6.60;1.00
14053;DHT22;7101;51.600;7.310;2024-02-26T13:23:41;6.70;1.00
14053;DHT22;7101;51.600;7.310;2024-02-26T13:26:12;6.60;1.00
14053;DHT22;7101;51.600;7.310;2024-02-26T13:28:39;6.60;1.00
14053;DHT22;7101;51.600;7.310;2024-02-26T13:31:05;6.60;1.00
14053;DHT22;7101;51.600;7.310;2024-02-26T13:33:33;6.70;1.00
14053;DHT22;7101;51.600;7.310;2024-02-26T13:36:01;6.70;1.00
14053;DHT22;7101;51.600;7.310;2024-02-26T13:38:28;6.80;1.00
14053;DHT22;7101;51.600;7.310;2024-02-26T13:40:55;6.70;1.00
14053;DHT22;7101;51.600;7.310;2024-02-26T13:43:23;6.60;99.90
14053;DHT22;7101;51.600;7.310;2024-02-26T13:45:50;6.70;99.90
14053;DHT22;7101;51.600;7.310;2024-02-26T13:48:17;6.70;99.90
14053;DHT22;7101;51.600;7.310;2024-02-26T13:50:44;6.80;1.00
14053;DHT22;7101;51.600;7.310;2024-02-26T13:53:12;6.80;99.90
14053;DHT22;7101;51.600;7.310;2024-02-26T13:55:40;6.90;99.90
14053;DHT22;7101;51.600;7.310;2024-02-26T13:58:11;6.80;99.90
14053;DHT22;7101;51.600;7.310;2024-02-26T14:00:41;6.90;99.90
14053;DHT22;7101;51.600;7.310;2024-02-26T14:03:08;6.90;99.90
14053;DHT22;7101;51.600;7.310;2024-02-26T14:05:35;7.00;99.90
14053;DHT22;7101;51.600;7.310;2024-02-26T14:08:02;7.00;99.90
14053;DHT22;7101;51.600;7.310;2024-02-26T14:10:29;7.00;99.90
14053;DHT22;7101;51.600;7.310;2024-02-26T14:12:57;7.10;1.00
14053;DHT22;7101;51.600;7.310;2024-02-26T14:15:24;7.10;99.90
14053;DHT22;7101;51.600;7.310;2024-02-26T14:17:52;7.10;99.90
14053;DHT22;7101;51.600;7.310;2024-02-26T14:20:23;7.10;1.00
14053;DHT22;7101;51.600;7.310;2024-02-26T14:22:50;7.20;1.00
14053;DHT22;7101;51.600;7.310;2024-02-26T14:25:18;7.30;1.00
14053;DHT22;7101;51.600;7.310;2024-02-26T14:27:46;7.30;1.00
14053;DHT22;7101;51.600;7.310;2024-02-26T14:30:13;7.30;1.00
14053;DHT22;7101;51.600;7.310;2024-02-26T14:32:40;7.40;1.00
14053;DHT22;7101;51.600;7.310;2024-02-26T14:35:08;7.30;1.00
14053;DHT22;7101;51.600;7.310;2024-02-26T14:37:36;7.40;1.00
14053;DHT22;7101;51.600;7.310;2024-02-26T14:40:03;7.50;1.00
14053;DHT22;7101;51.600;7.310;2024-02-26T14:42:30;7.40;1.00
14053;DHT22;7101;51.600;7.310;2024-02-26T14:44:57;7.50;1.00
14053;DHT22;7101;51.600;7.310;2024-02-26T14:47:25;7.50;1.00
14053;DHT22;7101;51.600;7.310;2024-02-26T14:49:52;7.50;99.90
14053;DHT22;7101;51.600;7.310;2024-02-26T14:52:21;7.60;1.00
14053;DHT22;7101;51.600;7.310;2024-02-26T14:54:48;7.60;99.90
14053;DHT22;7101;51.600;7.310;2024-02-26T14:57:17;7.60;99.90
14053;DHT22;7101;51.600;7.310;2024-02-26T14:59:44;7.60;1.00
14053;DHT22;7101;51.600;7.310;2024-02-26T15:02:11;7.70;99.90
14053;DHT22;7101;51.600;7.310;2024-02-26T15:04:38;7.60;99.90
14053;DHT22;7101;51.600;7.310;2024-02-26T15:07:05;7.70;99.90
14053;DHT22;7101;51.600;7.310;2024-02-26T15:09:33;7.70;99.90
14053;DHT22;7101;51.600;7.310;2024-02-26T15:12:01;7.70;99.90
14053;DHT22;7101;51.600;7.310;2024-02-26T15:14:28;7.80;99.90
14053;DHT22;7101;51.600;7.310;2024-02-26T15:16:55;7.80;99.90
14053;DHT22;7101;51.600;7.310;2024-02-26T15:19:22;7.80;1.00
14053;DHT22;7101;51.600;7.310;2024-02-26T15:21:49;7.80;99.90
14053;DHT22;7101;51.600;7.310;2024-02-26T15:24:16;7.80;99.90
14053;DHT22;7101;51.600;7.310;2024-02-26T15:26:45;7.70;1.00
14053;DHT22;7101;51.600;7.310;2024-02-26T15:29:12;7.70;99.90
14053;DHT22;7101;51.600;7.310;2024-02-26T15:31:39;7.70;99.90
14053;DHT22;7101;51.600;7.310;2024-02-26T15:34:05;7.80;1.00
14053;DHT22;7101;51.600;7.310;2024-02-26T15:36:34;7.90;99.90
14053;DHT22;7101;51.600;7.310;2024-02-26T15:39:01;7.90;1.00
14053;DHT22;7101;51.600;7.310;2024-02-26T15:41:28;7.90;99.90
14053;DHT22;7101;51.600;7.310;2024-02-26T15:43:56;7.90;99.90
14053;DHT22;7101;51.600;7.310;2024-02-26T15:46:23;7.80;1.00
14053;DHT22;7101;51.600;7.310;2024-02-26T15:48:50;7.70;99.90
14053;DHT22;7101;51.600;7.310;2024-02-26T15:51:21;7.70;99.90
14053;DHT22;7101;51.600;7.310;2024-02-26T15:53:48;7.70;99.90
14053;DHT22;7101;51.600;7.310;2024-02-26T15:56:15;7.70;99.90
14053;DHT22;7101;51.600;7.310;2024-02-26T15:58:42;7.60;99.90
14053;DHT22;7101;51.600;7.310;2024-02-26T16:01:10;7.50;99.90
14053;DHT22;7101;51.600;7.310;2024-02-26T16:03:38;7.50;1.00
14053;DHT22;7101;51.600;7.310;2024-02-26T16:06:06;7.50;1.00
14053;DHT22;7101;51.600;7.310;2024-02-26T16:08:34;7.50;1.00
14053;DHT22;7101;51.600;7.310;2024-02-26T16:11:01;7.50;1.00
14053;DHT22;7101;51.600;7.310;2024-02-26T16:13:27;7.50;99.90